createdAt,value
2018-07-20T00:00:30.969Z,62.93
2018-07-20T00:01:30.458Z,62.93
2018-07-20T00:03:26.928Z,62.73
2018-07-20T00:04:27.350Z,62.93
2018-07-20T00:06:22.411Z,63.41
2018-07-20T00:07:22.885Z,64.37
2018-07-20T00:09:16.818Z,64.37
2018-07-20T00:10:16.825Z,63.85
2018-07-20T00:12:12.775Z,64.37
2018-07-20T00:13:12.779Z,64.73
2018-07-20T00:15:09.243Z,64.25
2018-07-20T00:16:08.705Z,64.08
2018-07-20T00:18:06.172Z,64.82
2018-07-20T00:19:04.650Z,64.73
2018-07-20T00:21:00.108Z,64.92
2018-07-20T00:21:59.121Z,65.20
2018-07-20T00:23:55.105Z,65.59
2018-07-20T00:24:55.074Z,65.59
2018-07-20T00:26:51.019Z,65.59
2018-07-20T00:27:51.020Z,65.88
2018-07-20T00:29:49.987Z,66.52
2018-07-20T00:30:49.139Z,66.85
2018-07-20T00:32:43.580Z,66.42
2018-07-20T00:33:43.593Z,67.00
2018-07-20T00:35:39.553Z,67.19
2018-07-20T00:36:39.525Z,67.77
2018-07-20T00:38:34.473Z,67.58
2018-07-20T00:39:34.908Z,67.77
2018-07-20T00:41:27.957Z,67.77
2018-07-20T00:42:27.450Z,68.32
2018-07-20T00:44:23.416Z,69.41
2018-07-20T00:45:23.395Z,69.02
2018-07-20T00:47:17.871Z,68.93
2018-07-20T00:48:17.865Z,69.12
2018-07-20T00:50:14.351Z,69.09
2018-07-20T00:51:14.817Z,70.05
2018-07-20T00:53:10.222Z,70.05
2018-07-20T00:54:08.809Z,70.15
2018-07-20T00:56:03.249Z,69.76
2018-07-20T00:57:02.744Z,69.67
2018-07-20T00:58:59.215Z,69.85
2018-07-20T00:59:58.794Z,69.67
2018-07-20T01:01:53.254Z,70.72
2018-07-20T01:02:53.243Z,70.05
2018-07-20T01:04:49.187Z,70.43
2018-07-20T01:05:49.203Z,70.24
2018-07-20T01:07:44.198Z,70.92
2018-07-20T01:08:43.647Z,70.88
2018-07-20T01:10:39.595Z,71.36
2018-07-20T01:11:40.113Z,71.36
2018-07-20T01:13:35.621Z,71.65
2018-07-20T01:14:36.070Z,71.75
2018-07-20T01:16:31.545Z,71.94
2018-07-20T01:17:32.457Z,72.03
2018-07-20T01:19:28.990Z,72.32
2018-07-20T01:20:27.488Z,72.52
2018-07-20T01:22:23.434Z,73.38
2018-07-20T01:23:23.441Z,73.00
2018-07-20T01:25:21.407Z,73.47
2018-07-20T01:26:21.391Z,73.77
2018-07-20T01:28:17.352Z,73.86
2018-07-20T01:29:17.324Z,74.34
2018-07-20T01:31:13.796Z,74.63
2018-07-20T01:32:13.307Z,74.54
2018-07-20T01:34:09.248Z,74.73
2018-07-20T01:35:09.759Z,75.21
2018-07-20T01:37:05.212Z,75.40
2018-07-20T01:38:03.709Z,75.79
2018-07-20T01:40:00.649Z,75.69
2018-07-20T01:40:59.652Z,75.31
2018-07-20T01:42:56.114Z,76.36
2018-07-20T01:43:55.609Z,76.36
2018-07-20T01:45:51.567Z,77.29
2018-07-20T01:46:52.071Z,77.58
2018-07-20T01:48:47.518Z,77.58
2018-07-20T01:49:48.038Z,78.34
2018-07-20T01:51:43.527Z,78.15
2018-07-20T01:52:43.500Z,78.25
2018-07-20T01:54:38.937Z,79.21
2018-07-20T01:55:38.439Z,79.02
2018-07-20T01:57:33.889Z,79.02
2018-07-20T01:58:33.900Z,79.69
2018-07-20T02:00:28.389Z,80.27
2018-07-20T02:01:28.363Z,79.88
2018-07-20T02:03:25.327Z,80.36
2018-07-20T02:04:24.319Z,80.17
2018-07-20T02:06:20.812Z,81.09
2018-07-20T02:07:20.281Z,80.99
2018-07-20T02:09:16.247Z,81.09
2018-07-20T02:10:16.240Z,81.38
2018-07-20T02:12:12.199Z,81.57
2018-07-20T02:13:12.211Z,81.90
2018-07-20T02:15:08.172Z,81.90
2018-07-20T02:16:08.126Z,82.19
2018-07-20T02:18:06.104Z,82.15
2018-07-20T02:19:06.077Z,82.53
2018-07-20T02:21:02.530Z,82.05
2018-07-20T02:22:02.531Z,82.63
2018-07-20T02:23:58.512Z,83.11
2018-07-20T02:26:13.957Z,83.87
2018-07-20T02:27:13.944Z,84.07
2018-07-20T02:29:09.922Z,84.07
2018-07-20T02:30:09.893Z,83.97
2018-07-20T02:32:06.353Z,84.26
2018-07-20T02:33:05.851Z,84.31
2018-07-20T02:35:01.774Z,84.64
2018-07-20T02:36:01.767Z,84.64
2018-07-20T02:37:57.725Z,84.03
2018-07-20T02:38:57.741Z,84.74
2018-07-20T02:40:54.229Z,85.66
2018-07-20T02:41:53.732Z,86.24
2018-07-20T02:43:49.666Z,86.43
2018-07-20T02:44:49.681Z,87.19
2018-07-20T02:46:44.153Z,87.29
2018-07-20T02:47:44.141Z,87.10
2018-07-20T02:49:41.587Z,86.81
2018-07-20T02:50:40.075Z,86.24
2018-07-20T02:52:34.524Z,86.62
2018-07-20T02:53:34.528Z,86.81
2018-07-20T02:55:29.566Z,87.39
2018-07-20T02:56:29.999Z,87.49
2018-07-20T02:58:25.121Z,88.45
2018-07-20T02:59:25.111Z,88.69
2018-07-20T03:01:21.047Z,88.40
2018-07-20T03:02:21.048Z,88.25
2018-07-20T03:04:17.500Z,88.25
2018-07-20T03:05:18.494Z,88.16
2018-07-20T03:07:12.983Z,88.40
2018-07-20T03:08:12.987Z,88.35
2018-07-20T03:10:08.962Z,88.11
2018-07-20T03:11:08.929Z,88.40
2018-07-20T03:13:04.893Z,88.25
2018-07-20T03:14:04.883Z,88.40
2018-07-20T03:16:01.346Z,88.31
2018-07-20T03:17:01.347Z,88.59
2018-07-20T03:18:55.799Z,88.73
2018-07-20T03:19:55.287Z,88.31
2018-07-20T03:21:51.255Z,88.31
2018-07-20T03:22:51.739Z,88.31
2018-07-20T03:24:47.172Z,88.02
2018-07-20T03:25:47.187Z,89.26
2018-07-20T03:27:43.172Z,88.98
2018-07-20T03:28:43.136Z,88.98
2018-07-20T03:30:39.130Z,89.26
2018-07-20T03:31:40.100Z,88.73
2018-07-20T03:33:35.106Z,88.88
2018-07-20T03:34:35.588Z,88.88
2018-07-20T03:36:31.001Z,89.36
2018-07-20T03:37:31.016Z,88.98
2018-07-20T03:39:26.949Z,89.17
2018-07-20T03:40:27.891Z,88.88
2018-07-20T03:42:22.945Z,88.98
2018-07-20T03:43:22.921Z,88.93
2018-07-20T03:45:19.893Z,89.07
2018-07-20T03:46:18.852Z,88.98
2018-07-20T03:48:15.315Z,89.07
2018-07-20T03:49:14.794Z,89.17
2018-07-20T03:51:09.744Z,88.93
2018-07-20T03:52:09.290Z,88.59
2018-07-20T03:54:06.223Z,88.45
2018-07-20T03:55:06.139Z,88.25
2018-07-20T03:56:59.693Z,88.25
2018-07-20T03:57:59.653Z,87.96
2018-07-20T03:59:54.110Z,87.58
2018-07-20T04:00:54.131Z,88.06
2018-07-20T04:02:51.086Z,87.87
2018-07-20T04:03:50.068Z,87.49
2018-07-20T04:05:44.541Z,87.87
2018-07-20T04:06:44.502Z,87.29
2018-07-20T04:08:42.974Z,87.87
2018-07-20T04:09:43.460Z,87.87
2018-07-20T04:11:37.080Z,88.35
2018-07-20T04:12:37.609Z,87.87
2018-07-20T04:14:33.061Z,88.06
2018-07-20T04:15:33.049Z,87.39
2018-07-20T04:17:28.025Z,87.58
2018-07-20T04:18:27.516Z,86.81
2018-07-20T04:20:23.512Z,86.72
2018-07-20T04:21:23.469Z,87.29
2018-07-20T04:23:17.920Z,87.10
2018-07-20T04:24:18.439Z,87.77
2018-07-20T04:26:14.879Z,87.96
2018-07-20T04:27:13.867Z,87.96
2018-07-20T04:29:11.334Z,87.49
2018-07-20T04:30:10.851Z,87.49
2018-07-20T04:32:05.825Z,87.87
2018-07-20T04:33:05.802Z,87.87
2018-07-20T04:35:02.255Z,87.39
2018-07-20T04:36:02.244Z,87.87
2018-07-20T04:37:58.695Z,87.77
2018-07-20T04:38:57.667Z,87.96
2018-07-20T04:40:51.634Z,87.39
2018-07-20T04:41:51.123Z,87.58
2018-07-20T04:43:48.101Z,86.81
2018-07-20T04:44:47.066Z,87.01
2018-07-20T04:46:44.066Z,87.39
2018-07-20T04:47:44.544Z,87.24
2018-07-20T04:49:40.015Z,87.10
2018-07-20T04:50:40.992Z,87.05
2018-07-20T04:52:36.956Z,88.10
2018-07-20T04:53:35.940Z,87.53
2018-07-20T04:55:32.436Z,86.76
2018-07-20T04:56:31.873Z,86.47
2018-07-20T04:58:27.829Z,86.85
2018-07-20T04:59:27.822Z,86.66
2018-07-20T05:01:22.266Z,88.20
2018-07-20T05:02:22.267Z,87.92
2018-07-20T05:04:18.745Z,87.92
2018-07-20T05:05:18.228Z,88.49
2018-07-20T05:07:14.678Z,88.87
2018-07-20T05:08:14.167Z,88.97
2018-07-20T05:10:10.153Z,88.49
2018-07-20T05:11:10.132Z,88.59
2018-07-20T05:13:05.595Z,87.72
2018-07-20T05:14:04.597Z,87.57
2018-07-20T05:15:59.029Z,86.52
2018-07-20T05:16:59.557Z,85.36
2018-07-20T05:18:55.033Z,85.27
2018-07-20T05:19:55.497Z,83.83
2018-07-20T05:21:50.964Z,83.83
2018-07-20T05:22:50.976Z,84.69
2018-07-20T05:24:47.433Z,84.30
2018-07-20T05:25:46.900Z,83.83
2018-07-20T05:27:42.843Z,83.15
2018-07-20T05:28:42.837Z,83.34
2018-07-20T05:30:40.827Z,82.86
2018-07-20T05:31:41.296Z,84.06
2018-07-20T05:33:35.759Z,83.29
2018-07-20T05:34:35.758Z,82.81
2018-07-20T05:36:32.714Z,83.73
2018-07-20T05:37:31.216Z,83.39
2018-07-20T05:39:27.687Z,83.29
2018-07-20T05:40:27.159Z,82.32
2018-07-20T05:42:23.092Z,83.09
2018-07-20T05:43:23.116Z,83.09
2018-07-20T05:45:19.031Z,81.94
2018-07-20T05:46:19.038Z,81.75
2018-07-20T05:48:15.012Z,80.30
2018-07-20T05:49:14.992Z,79.63
2018-07-20T05:51:09.476Z,78.86
2018-07-20T05:52:09.952Z,78.71
2018-07-20T05:54:05.424Z,77.17
2018-07-20T05:55:05.393Z,76.98
2018-07-20T05:57:01.347Z,76.21
2018-07-20T05:58:01.855Z,76.31
2018-07-20T05:59:57.316Z,75.15
2018-07-20T06:00:57.310Z,74.71
2018-07-20T06:02:56.258Z,73.74
2018-07-20T06:03:55.432Z,74.13
2018-07-20T06:05:52.386Z,73.84
2018-07-20T06:06:51.370Z,72.72
2018-07-20T06:08:46.363Z,71.85
2018-07-20T06:09:45.822Z,71.95
2018-07-20T06:11:41.756Z,71.95
2018-07-20T06:12:42.285Z,71.28
2018-07-20T06:14:36.260Z,70.98
2018-07-20T06:15:35.267Z,71.28
2018-07-20T06:17:28.681Z,70.79
2018-07-20T06:18:28.700Z,71.37
2018-07-20T06:20:23.151Z,70.70
2018-07-20T06:21:23.131Z,70.31
2018-07-20T06:23:18.105Z,70.21
2018-07-20T06:24:17.595Z,70.06
2018-07-20T06:26:13.593Z,69.19
2018-07-20T06:27:13.557Z,68.04
2018-07-20T06:29:09.515Z,68.13
2018-07-20T06:30:08.521Z,68.13
2018-07-20T06:32:04.001Z,67.58
2018-07-20T06:33:02.483Z,67.00
2018-07-20T06:34:57.442Z,65.08
2018-07-20T06:35:57.440Z,64.63
2018-07-20T06:37:51.378Z,64.05
2018-07-20T06:38:52.799Z,64.63
2018-07-20T06:40:46.824Z,64.15
2018-07-20T06:41:45.825Z,64.05
2018-07-20T06:43:40.296Z,63.85
2018-07-20T06:44:40.300Z,64.43
2018-07-20T06:46:35.293Z,63.95
2018-07-20T06:47:35.757Z,64.24
2018-07-20T06:49:29.214Z,64.63
2018-07-20T06:50:29.748Z,64.34
2018-07-20T06:52:24.205Z,63.85
2018-07-20T06:53:23.675Z,63.57
2018-07-20T06:55:18.644Z,63.76
2018-07-20T06:56:17.101Z,63.76
2018-07-20T06:58:10.584Z,63.95
2018-07-20T06:59:10.574Z,63.76
2018-07-20T07:01:05.013Z,63.37
2018-07-20T07:02:05.034Z,63.37
2018-07-20T07:03:58.504Z,63.02
2018-07-20T07:04:58.983Z,62.63
2018-07-20T07:06:52.949Z,61.57
2018-07-20T07:07:52.942Z,61.86
2018-07-20T07:09:47.387Z,62.05
2018-07-20T07:10:47.395Z,61.67
2018-07-20T07:12:43.855Z,61.51
2018-07-20T07:13:43.855Z,61.02
2018-07-20T07:15:37.786Z,60.54
2018-07-20T07:16:37.830Z,60.28
2018-07-20T07:18:32.278Z,59.86
2018-07-20T07:19:32.277Z,59.86
2018-07-20T07:21:26.754Z,60.06
2018-07-20T07:22:27.757Z,59.70
2018-07-20T07:24:21.237Z,59.60
2018-07-20T07:25:21.207Z,59.12
2018-07-20T07:27:14.651Z,59.70
2018-07-20T07:28:14.670Z,58.73
2018-07-20T07:30:08.127Z,59.80
2018-07-20T07:31:08.138Z,58.93
2018-07-20T07:33:04.085Z,59.51
2018-07-20T07:34:04.095Z,59.70
2018-07-20T07:35:58.533Z,59.41
2018-07-20T07:36:58.556Z,59.80
2018-07-20T07:38:53.537Z,59.12
2018-07-20T07:39:53.526Z,58.95
2018-07-20T07:41:47.985Z,58.28
2018-07-20T07:42:47.472Z,57.99
2018-07-20T07:44:42.441Z,58.18
2018-07-20T07:45:41.942Z,58.18
2018-07-20T07:47:36.440Z,58.28
2018-07-20T07:48:36.415Z,58.21
2018-07-20T07:50:30.417Z,57.82
2018-07-20T07:51:29.897Z,57.24
2018-07-20T07:53:24.354Z,57.24
2018-07-20T07:54:24.332Z,57.44
2018-07-20T07:56:18.811Z,57.73
2018-07-20T07:57:18.831Z,57.34
2018-07-20T07:59:12.282Z,58.31
2018-07-20T08:00:13.791Z,58.21
2018-07-20T08:02:06.714Z,57.34
2018-07-20T08:03:06.749Z,57.63
2018-07-20T08:05:00.707Z,57.34
2018-07-20T08:06:00.196Z,57.24
2018-07-20T08:07:54.142Z,57.18
2018-07-20T08:11:17.160Z,57.37
2018-07-20T08:12:49.770Z,57.63
2018-07-20T08:13:48.777Z,57.24
2018-07-20T08:15:43.311Z,58.31
2018-07-20T08:16:43.206Z,58.80
2018-07-20T08:18:37.688Z,58.02
2018-07-20T08:19:37.669Z,58.50
2018-07-20T08:21:32.120Z,58.70
2018-07-20T08:22:32.130Z,58.21
2018-07-20T08:24:28.097Z,57.82
2018-07-20T08:25:28.093Z,57.15
2018-07-20T08:27:24.062Z,57.34
2018-07-20T08:28:22.557Z,57.24
2018-07-20T08:30:18.530Z,57.34
2018-07-20T08:31:17.010Z,56.95
2018-07-20T08:33:11.499Z,56.98
2018-07-20T08:34:11.488Z,57.46
2018-07-20T08:36:07.959Z,56.98
2018-07-20T08:37:07.431Z,56.50
2018-07-20T08:39:01.909Z,55.56
2018-07-20T08:40:01.918Z,55.27
2018-07-20T08:41:56.366Z,55.85
2018-07-20T08:42:56.871Z,55.94
2018-07-20T08:44:53.825Z,55.56
2018-07-20T08:45:52.323Z,55.46
2018-07-20T08:47:47.784Z,54.98
2018-07-20T08:48:46.787Z,55.17
2018-07-20T08:50:41.247Z,55.17
2018-07-20T08:51:41.270Z,55.00
2018-07-20T08:53:35.708Z,54.43
2018-07-20T08:54:35.717Z,54.81
2018-07-20T08:56:29.198Z,54.30
2018-07-20T08:57:29.183Z,54.23
2018-07-20T08:59:23.646Z,54.03
2018-07-20T09:00:23.655Z,54.43
2018-07-20T09:02:17.634Z,53.75
2018-07-20T09:03:18.141Z,53.29
2018-07-20T09:05:11.564Z,52.61
2018-07-20T09:06:11.565Z,53.00
2018-07-20T09:08:06.043Z,52.51
2018-07-20T09:09:06.026Z,52.90
2018-07-20T09:10:59.506Z,53.00
2018-07-20T09:11:59.493Z,52.71
2018-07-20T09:13:54.092Z,52.42
2018-07-20T09:14:54.972Z,52.15
2018-07-20T09:16:48.449Z,52.06
2018-07-20T09:17:48.429Z,50.89
2018-07-20T09:19:42.404Z,51.09
2018-07-20T09:20:42.001Z,51.47
2018-07-20T09:22:37.354Z,51.28
2018-07-20T09:23:36.363Z,51.47
2018-07-20T09:25:32.248Z,51.57
2018-07-20T09:26:30.788Z,51.28
2018-07-20T09:28:24.340Z,51.57
2018-07-20T09:29:25.771Z,50.99
2018-07-20T09:31:19.217Z,51.11
2018-07-20T09:32:18.730Z,50.34
2018-07-20T09:34:14.238Z,49.85
2018-07-20T09:35:13.699Z,50.04
2018-07-20T09:37:07.660Z,50.04
2018-07-20T09:38:07.682Z,49.95
2018-07-20T09:40:02.146Z,50.34
2018-07-20T09:41:02.141Z,50.62
2018-07-20T09:42:57.599Z,49.85
2018-07-20T09:43:58.522Z,49.77
2018-07-20T09:45:50.063Z,49.12
2018-07-20T09:46:50.070Z,48.83
2018-07-20T09:48:43.552Z,48.15
2018-07-20T09:49:43.559Z,47.66
2018-07-20T09:51:39.510Z,47.49
2018-07-20T09:52:38.026Z,47.66
2018-07-20T09:54:33.472Z,47.49
2018-07-20T09:55:32.507Z,46.41
2018-07-20T09:57:26.986Z,46.69
2018-07-20T09:58:27.062Z,47.28
2018-07-20T10:00:23.947Z,46.62
2018-07-20T10:01:22.957Z,47.20
2018-07-20T10:03:17.424Z,47.11
2018-07-20T10:04:17.439Z,46.33
2018-07-20T10:06:11.391Z,47.11
2018-07-20T10:07:10.898Z,46.81
2018-07-20T10:09:06.363Z,46.62
2018-07-20T10:10:05.370Z,46.72
2018-07-20T10:11:59.837Z,47.30
2018-07-20T10:13:01.833Z,46.81
2018-07-20T10:14:54.826Z,46.81
2018-07-20T10:15:54.300Z,47.11
2018-07-20T10:17:49.260Z,45.84
2018-07-20T10:18:48.761Z,45.36
2018-07-20T10:20:43.219Z,45.18
2018-07-20T10:21:43.722Z,45.18
2018-07-20T10:23:39.179Z,44.51
2018-07-20T10:24:38.175Z,44.41
2018-07-20T10:26:34.152Z,43.95
2018-07-20T10:27:32.158Z,43.55
2018-07-20T10:29:27.153Z,42.78
2018-07-20T10:30:26.620Z,42.68
2018-07-20T10:32:21.615Z,42.31
2018-07-20T10:33:21.113Z,42.11
2018-07-20T10:35:15.587Z,42.02
2018-07-20T10:36:16.085Z,42.02
2018-07-20T10:38:10.510Z,42.11
2018-07-20T10:39:10.517Z,42.29
2018-07-20T10:41:04.479Z,42.29
2018-07-20T10:42:04.490Z,42.10
2018-07-20T10:43:59.467Z,41.61
2018-07-20T10:44:58.960Z,41.61
2018-07-20T10:46:52.473Z,41.53
2018-07-20T10:47:52.928Z,41.05
2018-07-20T10:49:46.863Z,40.27
2018-07-20T10:50:46.873Z,39.59
2018-07-20T10:52:42.851Z,38.21
2018-07-20T10:53:42.346Z,38.23
2018-07-20T10:55:35.820Z,37.62
2018-07-20T10:56:36.356Z,38.13
2018-07-20T10:58:29.782Z,39.18
2018-07-20T10:59:31.288Z,39.37
2018-07-20T11:01:24.314Z,39.86
2018-07-20T11:02:23.765Z,39.67
2018-07-20T11:04:18.217Z,39.37
2018-07-20T11:05:18.241Z,39.28
2018-07-20T11:07:14.708Z,39.20
2018-07-20T11:08:14.190Z,38.62
2018-07-20T11:10:08.160Z,38.32
2018-07-20T11:11:08.176Z,38.32
2018-07-20T11:13:02.135Z,38.23
2018-07-20T11:14:01.148Z,38.05
2018-07-20T11:15:55.622Z,38.05
2018-07-20T11:16:54.620Z,38.34
2018-07-20T11:18:48.567Z,38.15
2018-07-20T11:19:48.098Z,38.46
2018-07-20T11:21:43.548Z,37.95
2018-07-20T11:22:42.561Z,38.34
2018-07-20T11:24:36.014Z,38.15
2018-07-20T11:25:36.046Z,38.44
2018-07-20T11:27:32.031Z,38.34
2018-07-20T11:28:33.003Z,38.24
2018-07-20T11:30:27.485Z,38.07
2018-07-20T11:31:26.487Z,38.17
2018-07-20T11:33:21.942Z,37.79
2018-07-20T11:34:20.975Z,37.60
2018-07-20T11:36:14.981Z,37.77
2018-07-20T11:37:14.478Z,37.29
2018-07-20T11:39:08.434Z,37.85
2018-07-20T11:40:07.932Z,37.76
2018-07-20T11:42:02.924Z,37.85
2018-07-20T11:43:02.401Z,37.56
2018-07-20T11:44:57.375Z,38.05
2018-07-20T11:45:56.856Z,38.15
2018-07-20T11:47:51.319Z,37.58
2018-07-20T11:48:51.333Z,37.39
2018-07-20T11:50:45.797Z,36.82
2018-07-20T11:51:44.824Z,37.50
2018-07-20T11:53:40.286Z,37.02
2018-07-20T11:54:39.290Z,37.19
2018-07-20T11:56:33.770Z,37.77
2018-07-20T11:57:34.772Z,38.07
2018-07-20T11:59:28.226Z,37.77
2018-07-20T12:00:28.227Z,37.10
2018-07-20T12:02:24.693Z,36.92
2018-07-20T12:03:24.196Z,37.31
2018-07-20T12:05:18.616Z,37.12
2018-07-20T12:06:18.625Z,36.82
2018-07-20T12:08:14.026Z,36.72
2018-07-20T12:09:13.105Z,36.72
2018-07-20T12:11:07.595Z,36.72
2018-07-20T12:12:08.573Z,36.63
2018-07-20T12:14:02.024Z,37.02
2018-07-20T12:15:02.053Z,37.21
2018-07-20T12:16:56.528Z,37.31
2018-07-20T12:17:56.523Z,36.92
2018-07-20T12:19:50.975Z,37.58
2018-07-20T12:20:51.009Z,37.89
2018-07-20T12:22:44.479Z,38.07
2018-07-20T12:23:45.465Z,38.18
2018-07-20T12:25:38.918Z,38.18
2018-07-20T12:26:39.442Z,37.89
2018-07-20T12:28:32.884Z,37.60
2018-07-20T12:29:33.401Z,37.41
2018-07-20T12:31:25.887Z,36.92
2018-07-20T12:32:25.876Z,36.82
2018-07-20T12:34:20.384Z,37.50
2018-07-20T12:35:20.859Z,37.43
2018-07-20T12:37:16.310Z,37.43
2018-07-20T12:38:17.309Z,37.52
2018-07-20T12:40:11.287Z,36.94
2018-07-20T12:41:10.845Z,36.66
2018-07-20T12:43:04.268Z,36.27
2018-07-20T12:44:05.265Z,36.37
2018-07-20T12:46:01.241Z,36.27
2018-07-20T12:47:00.242Z,35.88
2018-07-20T12:48:54.704Z,36.18
2018-07-20T12:49:54.723Z,35.98
2018-07-20T12:51:49.711Z,35.88
2018-07-20T12:52:49.206Z,36.18
2018-07-20T12:54:43.672Z,36.18
2018-07-20T12:55:44.659Z,35.69
2018-07-20T12:57:38.181Z,35.69
2018-07-20T12:58:38.205Z,35.86
2018-07-20T13:00:32.656Z,36.06
2018-07-20T13:01:32.684Z,36.25
2018-07-20T13:03:28.140Z,36.16
2018-07-20T13:04:30.075Z,36.47
2018-07-20T13:06:23.120Z,36.18
2018-07-20T13:07:23.157Z,35.88
2018-07-20T13:09:17.600Z,35.69
2018-07-20T13:10:17.605Z,35.88
2018-07-20T13:12:12.108Z,36.16
2018-07-20T13:13:13.080Z,36.55
2018-07-20T13:15:05.598Z,35.77
2018-07-20T13:16:06.072Z,35.77
2018-07-20T13:18:01.086Z,36.84
2018-07-20T13:19:00.946Z,36.94
2018-07-20T13:20:58.158Z,35.98
2018-07-20T13:21:58.180Z,35.30
2018-07-20T13:23:53.141Z,35.78
2018-07-20T13:24:52.655Z,35.88
2018-07-20T13:26:47.615Z,35.69
2018-07-20T13:27:47.608Z,35.69
2018-07-20T13:29:43.088Z,35.77
2018-07-20T13:30:43.087Z,36.25
2018-07-20T13:32:37.568Z,35.69
2018-07-20T13:33:37.562Z,35.59
2018-07-20T13:35:31.016Z,35.78
2018-07-20T13:36:31.555Z,35.78
2018-07-20T13:38:26.034Z,35.59
2018-07-20T13:39:25.536Z,35.69
2018-07-20T13:41:20.494Z,35.39
2018-07-20T13:42:19.999Z,35.10
2018-07-20T13:44:14.487Z,35.30
2018-07-20T13:45:13.475Z,35.30
2018-07-20T13:47:07.455Z,35.10
2018-07-20T13:48:06.935Z,35.22
2018-07-20T13:50:01.447Z,35.22
2018-07-20T13:51:01.419Z,35.51
2018-07-20T13:52:55.883Z,35.14
2018-07-20T13:53:55.894Z,34.53
2018-07-20T13:55:49.370Z,34.92
2018-07-20T13:56:50.355Z,34.83
2018-07-20T13:58:43.881Z,35.78
2018-07-20T13:59:43.852Z,36.27
2018-07-20T14:01:39.813Z,35.78
2018-07-20T14:02:38.332Z,35.39
2018-07-20T14:04:34.304Z,35.78
2018-07-20T14:05:33.043Z,35.30
2018-07-20T14:07:29.532Z,35.59
2018-07-20T14:08:29.531Z,35.61
2018-07-20T14:10:24.475Z,35.71
2018-07-20T14:11:24.531Z,35.30
2018-07-20T14:13:16.945Z,35.39
2018-07-20T14:14:16.961Z,35.10
2018-07-20T14:16:10.436Z,35.30
2018-07-20T14:17:10.429Z,35.20
2018-07-20T14:19:04.914Z,35.59
2018-07-20T14:20:04.911Z,35.88
2018-07-20T14:21:59.401Z,35.88
2018-07-20T14:23:00.390Z,35.78
2018-07-20T14:24:53.373Z,36.27
2018-07-20T14:25:52.839Z,36.47
2018-07-20T14:27:46.804Z,36.27
2018-07-20T14:28:47.304Z,35.98
2018-07-20T14:30:40.779Z,35.78
2018-07-20T14:31:40.878Z,36.08
2018-07-20T14:33:36.260Z,35.88
2018-07-20T14:34:36.276Z,35.39
2018-07-20T14:36:30.285Z,35.69
2018-07-20T14:37:29.821Z,35.90
2018-07-20T14:39:23.243Z,35.30
2018-07-20T14:40:23.263Z,35.69
2018-07-20T14:42:17.738Z,35.69
2018-07-20T14:43:17.734Z,35.59
2018-07-20T14:45:15.694Z,35.59
2018-07-20T14:46:13.670Z,35.39
2018-07-20T14:48:08.657Z,35.30
2018-07-20T14:49:08.168Z,35.49
2018-07-20T14:51:03.680Z,35.59
2018-07-20T14:52:03.628Z,35.69
2018-07-20T14:53:58.059Z,35.69
2018-07-20T14:54:57.171Z,35.49
2018-07-20T14:56:51.622Z,35.30
2018-07-20T14:57:52.160Z,35.20
2018-07-20T14:59:46.657Z,35.38
2018-07-20T15:00:46.108Z,35.88
2018-07-20T15:02:40.619Z,35.38
2018-07-20T15:03:41.575Z,35.96
2018-07-20T15:05:34.032Z,35.67
2018-07-20T15:06:34.047Z,36.25
2018-07-20T15:08:28.570Z,35.77
2018-07-20T15:09:28.549Z,35.30
2018-07-20T15:11:23.045Z,35.67
2018-07-20T15:12:24.006Z,35.30
2018-07-20T15:14:18.006Z,35.18
2018-07-20T15:15:17.519Z,35.28
2018-07-20T15:17:11.490Z,35.39
2018-07-20T15:18:11.974Z,35.20
2018-07-20T15:20:05.471Z,35.18
2018-07-20T15:21:05.466Z,35.08
2018-07-20T15:22:59.942Z,35.77
2018-07-20T15:23:59.947Z,35.38
2018-07-20T15:25:53.916Z,35.30
2018-07-20T15:26:53.909Z,35.10
2018-07-20T15:28:46.885Z,34.81
2018-07-20T15:29:46.903Z,34.42
2018-07-20T15:31:43.368Z,34.71
2018-07-20T15:32:41.365Z,34.40
2018-07-20T15:34:35.850Z,34.99
2018-07-20T15:35:36.330Z,35.18
2018-07-20T15:37:30.299Z,35.28
2018-07-20T15:38:30.312Z,35.57
2018-07-20T15:40:25.785Z,35.18
2018-07-20T15:41:24.780Z,35.06
2018-07-20T15:43:18.237Z,35.55
2018-07-20T15:44:18.254Z,35.46
2018-07-20T15:46:12.720Z,35.46
2018-07-20T15:47:12.766Z,35.26
2018-07-20T15:49:06.196Z,35.26
2018-07-20T15:50:06.179Z,35.26
2018-07-20T15:54:00.046Z,35.26
2018-07-20T15:54:54.634Z,35.85
2018-07-20T15:55:54.093Z,35.36
2018-07-20T15:57:50.566Z,35.28
2018-07-20T15:58:50.071Z,35.38
2018-07-20T16:00:45.059Z,35.18
2018-07-20T16:01:44.588Z,34.79
2018-07-20T16:03:39.533Z,34.69
2018-07-20T16:04:39.020Z,35.08
2018-07-20T16:06:35.009Z,34.79
2018-07-20T16:07:35.019Z,34.89
2018-07-20T16:09:29.498Z,34.79
2018-07-20T16:10:30.473Z,34.68
2018-07-20T16:12:22.979Z,35.08
2018-07-20T16:13:22.968Z,35.06
2018-07-20T16:15:18.443Z,35.16
2018-07-20T16:16:17.414Z,34.97
2018-07-20T16:18:10.903Z,35.16
2018-07-20T16:19:10.907Z,35.06
2018-07-20T16:21:06.879Z,35.36
2018-07-20T16:22:06.872Z,35.26
2018-07-20T16:24:01.368Z,35.26
2018-07-20T16:25:01.834Z,35.55
2018-07-20T16:26:57.294Z,35.36
2018-07-20T16:27:58.297Z,35.55
2018-07-20T16:29:52.283Z,35.73
2018-07-20T16:30:51.805Z,35.34
2018-07-20T16:32:45.333Z,35.94
2018-07-20T16:33:45.317Z,35.46
2018-07-20T16:35:42.277Z,35.53
2018-07-20T16:36:42.172Z,35.44
2018-07-20T16:38:35.705Z,35.73
2018-07-20T16:39:35.716Z,35.83
2018-07-20T16:41:31.714Z,35.55
2018-07-20T16:42:32.681Z,35.55
2018-07-20T16:44:25.204Z,35.55
2018-07-20T16:45:25.217Z,35.94
2018-07-20T16:47:19.752Z,35.63
2018-07-20T16:48:20.686Z,35.73
2018-07-20T16:50:14.138Z,35.65
2018-07-20T16:51:14.684Z,35.25
2018-07-20T16:53:10.115Z,35.44
2018-07-20T16:54:10.121Z,35.25
2018-07-20T16:56:06.092Z,35.34
2018-07-20T16:57:04.595Z,35.73
2018-07-20T16:58:59.625Z,35.53
2018-07-20T16:59:59.997Z,35.73
2018-07-20T17:01:55.109Z,35.93
2018-07-20T17:02:55.084Z,35.83
2018-07-20T17:04:51.016Z,35.83
2018-07-20T17:05:51.027Z,35.73
2018-07-20T17:07:45.494Z,35.83
2018-07-20T17:08:45.497Z,36.00
2018-07-20T17:10:41.461Z,35.42
2018-07-20T17:11:41.479Z,35.81
2018-07-20T17:13:35.944Z,35.71
2018-07-20T17:14:35.956Z,35.71
2018-07-20T17:16:32.917Z,35.33
2018-07-20T17:17:31.937Z,34.94
2018-07-20T17:19:27.400Z,35.03
2018-07-20T17:20:26.414Z,34.94
2018-07-20T17:22:20.877Z,34.84
2018-07-20T17:23:21.881Z,34.84
2018-07-20T17:25:15.386Z,34.16
2018-07-20T17:26:15.854Z,33.86
2018-07-20T17:28:11.328Z,33.28
2018-07-20T17:29:11.292Z,33.09
2018-07-20T17:31:07.263Z,32.21
2018-07-20T17:32:07.252Z,32.59
2018-07-20T17:34:02.243Z,31.90
2018-07-20T17:35:01.741Z,32.59
2018-07-20T17:36:56.175Z,32.49
2018-07-20T17:37:56.188Z,32.39
2018-07-20T17:39:52.153Z,32.20
2018-07-20T17:40:50.673Z,32.20
2018-07-20T17:42:46.128Z,32.10
2018-07-20T17:43:45.145Z,32.00
2018-07-20T17:45:42.149Z,31.81
2018-07-20T17:46:41.166Z,31.61
2018-07-20T17:48:37.113Z,32.10
2018-07-20T17:49:37.120Z,31.51
2018-07-20T17:51:31.581Z,32.10
2018-07-20T17:52:31.572Z,32.10
2018-07-20T17:54:26.072Z,31.90
2018-07-20T17:55:26.040Z,32.20
2018-07-20T17:57:22.534Z,32.20
2018-07-20T17:58:23.007Z,31.90
2018-07-20T18:00:15.517Z,35.21
2018-07-20T18:01:15.530Z,36.47
2018-07-20T18:03:10.018Z,37.52
2018-07-20T18:04:10.497Z,38.40
2018-07-20T18:06:03.495Z,39.55
2018-07-20T18:07:03.494Z,40.81
2018-07-20T18:08:59.946Z,42.54
2018-07-20T18:10:00.455Z,44.87
2018-07-20T18:11:52.939Z,47.66
2018-07-20T18:12:52.924Z,47.18
2018-07-20T18:14:47.413Z,48.80
2018-07-20T18:15:47.939Z,50.46
2018-07-20T18:17:41.858Z,52.01
2018-07-20T18:18:41.841Z,54.11
2018-07-20T18:20:38.308Z,54.60
2018-07-20T18:21:37.808Z,57.03
2018-07-20T18:23:33.825Z,58.74
2018-07-20T18:24:33.772Z,63.85
2018-07-20T18:26:28.746Z,71.28
2018-07-20T18:27:28.252Z,75.92
2018-07-20T18:29:21.693Z,78.44
2018-07-20T18:30:21.719Z,77.63
2018-07-20T18:32:16.166Z,86.20
2018-07-20T18:33:16.679Z,86.88
2018-07-20T18:35:12.138Z,90.41
2018-07-20T18:36:10.631Z,95.15
2018-07-20T18:38:04.090Z,96.46
2018-07-20T18:39:04.073Z,96.46
2018-07-20T18:40:58.545Z,96.22
2018-07-20T18:41:58.593Z,96.03
2018-07-20T18:43:54.017Z,95.83
2018-07-20T18:44:53.077Z,96.84
2018-07-20T18:46:46.551Z,99.02
2018-07-20T18:47:46.583Z,99.36
2018-07-20T18:49:41.069Z,99.26